Time;durP1;ratioP1;P1;durP2;ratioP2;P2;SDS_P1;SDS_P2;PMS_P1;PMS_P2;Temp;Humidity;BMP_temperature;BMP_pressure;BME280_temperature;BME280_humidity;BME280_pressure;Samples;Min_cycle;Max_cycle;Signal;HPM_P1;HPM_P2
2023/03/01 00:00:39;;;;;;;6.30;3.70;;;;;;;;;;4987782;28;20350;-77
2023/03/01 00:03:05;;;;;;;11.82;5.38;;;;;;;;;;4985779;28;20481;-77
2023/03/01 00:05:31;;;;;;;8.13;4.72;;;;;;;;;;4984876;28;20037;-77
2023/03/01 00:07:58;;;;;;;5.63;3.83;;;;;;;;;;4985747;28;20142;-77
2023/03/01 00:10:31;;;;;;;10.73;4.57;;;;;;;;;;4982606;28;20066;-77
2023/03/01 00:12:57;;;;;;;6.38;3.42;;;;;;;;;;4979199;28;20639;-77
2023/03/01 00:15:23;;;;;;;5.72;3.33;;;;;;;;;;4982029;28;20392;-77
2023/03/01 00:17:49;;;;;;;9.43;4.00;;;;;;;;;;4986379;28;20230;-77
2023/03/01 00:20:21;;;;;;;7.72;3.45;;;;;;;;;;4986984;28;20548;-76
2023/03/01 00:22:50;;;;;;;11.32;4.75;;;;;;;;;;4985002;28;20034;-76
2023/03/01 00:25:19;;;;;;;10.98;4.28;;;;;;;;;;4986317;28;20037;-76
2023/03/01 00:27:48;;;;;;;9.43;4.22;;;;;;;;;;4977557;28;20042;-76
2023/03/01 00:30:14;;;;;;;9.13;4.28;;;;;;;;;;4986430;28;20030;-76
2023/03/01 00:32:44;;;;;;;9.70;4.20;;;;;;;;;;4987104;28;20771;-76
2023/03/01 00:35:12;;;;;;;7.93;3.97;;;;;;;;;;4984289;28;20117;-75
2023/03/01 00:37:45;;;;;;;5.97;3.63;;;;;;;;;;4981755;28;20034;-76
2023/03/01 00:40:20;;;;;;;8.32;3.42;;;;;;;;;;4984613;28;20029;-76
2023/03/01 00:42:46;;;;;;;6.65;3.90;;;;;;;;;;4986339;28;20058;-76
2023/03/01 00:45:13;;;;;;;5.60;3.42;;;;;;;;;;4984261;28;20025;-76
2023/03/01 00:47:38;;;;;;;7.78;3.33;;;;;;;;;;4986481;28;20124;-75
2023/03/01 00:50:05;;;;;;;8.45;4.03;;;;;;;;;;4986050;28;20037;-75
2023/03/01 00:52:31;;;;;;;6.60;3.67;;;;;;;;;;4987177;28;20035;-76
2023/03/01 00:54:57;;;;;;;6.03;4.07;;;;;;;;;;4985944;28;20029;-76
2023/03/01 00:57:26;;;;;;;7.60;3.75;;;;;;;;;;4985323;28;20448;-76
2023/03/01 00:59:52;;;;;;;6.15;3.70;;;;;;;;;;4987731;28;20026;-75
2023/03/01 01:02:18;;;;;;;7.35;3.97;;;;;;;;;;4985573;28;20538;-75
2023/03/01 01:04:44;;;;;;;8.15;3.70;;;;;;;;;;4987034;28;20358;-75
2023/03/01 01:07:11;;;;;;;7.90;3.80;;;;;;;;;;4986402;28;20053;-76
2023/03/01 01:09:37;;;;;;;6.28;3.75;;;;;;;;;;4985812;28;20035;-75
2023/03/01 01:12:06;;;;;;;6.68;4.15;;;;;;;;;;4984105;28;20023;-76
2023/03/01 01:14:32;;;;;;;3.85;2.78;;;;;;;;;;4983066;28;20027;-75
2023/03/01 01:16:58;;;;;;;6.75;3.78;;;;;;;;;;4982510;28;20019;-76
2023/03/01 01:19:25;;;;;;;6.15;3.17;;;;;;;;;;4986010;28;20078;-75
2023/03/01 01:21:51;;;;;;;8.93;3.90;;;;;;;;;;4980533;28;20027;-76
2023/03/01 01:24:17;;;;;;;7.55;3.78;;;;;;;;;;4982828;28;20122;-76
2023/03/01 01:26:43;;;;;;;5.07;3.10;;;;;;;;;;4977970;28;20031;-75
2023/03/01 01:29:10;;;;;;;7.38;3.28;;;;;;;;;;4982587;28;20045;-75
2023/03/01 01:31:36;;;;;;;6.40;2.90;;;;;;;;;;4984776;28;20030;-75
2023/03/01 01:34:04;;;;;;;7.22;3.45;;;;;;;;;;4987514;28;20340;-76
2023/03/01 01:36:30;;;;;;;5.78;3.78;;;;;;;;;;4980163;28;20031;-76
2023/03/01 01:38:56;;;;;;;6.93;3.42;;;;;;;;;;4980873;28;20701;-75
2023/03/01 01:41:23;;;;;;;7.07;3.75;;;;;;;;;;4986937;28;20385;-75
2023/03/01 01:43:50;;;;;;;6.03;3.83;;;;;;;;;;4985785;28;20035;-75
2023/03/01 01:46:26;;;;;;;4.50;2.53;;;;;;;;;;4982543;28;20105;-76
2023/03/01 01:49:00;;;;;;;6.95;3.53;;;;;;;;;;4986767;28;20486;-76
2023/03/01 01:51:38;;;;;;;7.45;3.90;;;;;;;;;;4989067;28;20117;-75
2023/03/01 01:54:06;;;;;;;9.57;3.42;;;;;;;;;;4983854;28;20134;-74
2023/03/01 01:56:32;;;;;;;7.97;3.53;;;;;;;;;;4984906;28;20031;-77
2023/03/01 01:58:58;;;;;;;9.48;4.00;;;;;;;;;;4986495;28;20030;-75
2023/03/01 02:01:24;;;;;;;6.45;3.53;;;;;;;;;;4985335;28;20722;-76
2023/03/01 02:03:50;;;;;;;5.20;3.03;;;;;;;;;;4989792;28;20401;-75
2023/03/01 02:06:20;;;;;;;6.88;3.72;;;;;;;;;;4989794;28;20080;-75
2023/03/01 02:08:47;;;;;;;6.03;3.30;;;;;;;;;;4986212;28;20034;-76
2023/03/01 02:11:17;;;;;;;6.28;3.92;;;;;;;;;;4984802;28;20088;-75
2023/03/01 02:13:43;;;;;;;4.57;2.92;;;;;;;;;;4987603;28;20038;-75
2023/03/01 02:16:10;;;;;;;5.45;3.13;;;;;;;;;;4985283;28;20073;-76
2023/03/01 02:18:36;;;;;;;7.75;3.40;;;;;;;;;;4983878;28;20196;-76
2023/03/01 02:21:09;;;;;;;5.90;3.30;;;;;;;;;;4988633;28;20046;-76
2023/03/01 02:23:35;;;;;;;4.78;2.90;;;;;;;;;;4984883;28;20105;-75
2023/03/01 02:26:14;;;;;;;5.90;3.00;;;;;;;;;;4983354;28;20030;-75
2023/03/01 02:28:43;;;;;;;10.23;4.03;;;;;;;;;;4985861;28;20022;-75
2023/03/01 02:33:56;;;;;;;9.13;3.45;;;;;;;;;;4985859;28;20405;-75
2023/03/01 02:36:24;;;;;;;3.88;2.55;;;;;;;;;;4987287;28;20038;-75
2023/03/01 02:38:52;;;;;;;8.60;3.47;;;;;;;;;;4986787;28;20042;-75
2023/03/01 02:41:19;;;;;;;7.03;3.05;;;;;;;;;;4988088;28;20023;-75
2023/03/01 02:43:46;;;;;;;6.70;3.03;;;;;;;;;;4983585;28;20065;-75
2023/03/01 02:46:19;;;;;;;5.38;2.95;;;;;;;;;;4986085;28;20030;-75
2023/03/01 02:48:50;;;;;;;5.45;3.05;;;;;;;;;;4977561;28;20027;-75
2023/03/01 02:51:31;;;;;;;5.07;3.58;;;;;;;;;;4986325;28;20038;-75
2023/03/01 02:54:09;;;;;;;6.25;3.05;;;;;;;;;;4984518;28;20031;-77
2023/03/01 02:56:35;;;;;;;5.18;3.40;;;;;;;;;;4984653;28;20142;-75
2023/03/01 02:59:02;;;;;;;5.90;3.13;;;;;;;;;;4988362;28;20125;-75
2023/03/01 03:01:37;;;;;;;5.68;2.88;;;;;;;;;;4986705;28;20027;-75
2023/03/01 03:04:17;;;;;;;7.22;3.03;;;;;;;;;;4978736;28;20113;-75
2023/03/01 03:06:46;;;;;;;4.47;2.70;;;;;;;;;;4980378;28;20077;-76
2023/03/01 03:09:13;;;;;;;5.03;2.65;;;;;;;;;;4979581;28;20048;-75
2023/03/01 03:11:40;;;;;;;5.45;3.08;;;;;;;;;;4986874;28;20034;-75
2023/03/01 03:14:12;;;;;;;6.03;3.15;;;;;;;;;;4986198;28;20019;-75
2023/03/01 03:16:46;;;;;;;8.68;3.28;;;;;;;;;;4988326;28;20097;-75
2023/03/01 03:19:12;;;;;;;6.90;3.20;;;;;;;;;;4985530;28;20034;-75
2023/03/01 03:21:38;;;;;;;5.35;2.47;;;;;;;;;;4991762;28;20034;-75
2023/03/01 03:24:05;;;;;;;6.18;3.08;;;;;;;;;;4985941;28;20018;-76
2023/03/01 03:26:31;;;;;;;4.60;3.00;;;;;;;;;;4981312;28;20030;-75
2023/03/01 03:28:57;;;;;;;5.93;2.83;;;;;;;;;;4981651;28;21675;-75
2023/03/01 03:31:23;;;;;;;4.53;2.38;;;;;;;;;;4987517;28;20611;-76
2023/03/01 03:33:49;;;;;;;6.03;3.00;;;;;;;;;;4983091;28;20485;-75
2023/03/01 03:36:19;;;;;;;4.55;2.28;;;;;;;;;;4984764;28;20054;-75
2023/03/01 03:38:45;;;;;;;5.72;3.00;;;;;;;;;;4987395;28;20034;-75
2023/03/01 03:41:11;;;;;;;5.65;3.00;;;;;;;;;;4986287;28;20034;-75
2023/03/01 03:43:39;;;;;;;7.70;3.22;;;;;;;;;;4985294;28;20089;-75
2023/03/01 03:46:05;;;;;;;5.50;2.83;;;;;;;;;;4984388;28;20112;-76
2023/03/01 03:48:32;;;;;;;5.85;2.83;;;;;;;;;;4985728;28;20557;-76
2023/03/01 03:50:57;;;;;;;4.80;2.85;;;;;;;;;;4983249;28;20027;-76
2023/03/01 03:53:24;;;;;;;7.13;3.33;;;;;;;;;;4986312;28;20022;-76
2023/03/01 03:55:51;;;;;;;5.45;2.60;;;;;;;;;;4985431;28;20034;-76
2023/03/01 03:58:20;;;;;;;4.53;2.85;;;;;;;;;;4983711;28;20030;-76
2023/03/01 04:00:47;;;;;;;5.75;2.55;;;;;;;;;;4985934;28;20053;-75
2023/03/01 04:03:14;;;;;;;8.13;3.20;;;;;;;;;;4985433;28;20073;-76
2023/03/01 04:05:40;;;;;;;6.90;3.05;;;;;;;;;;4985169;28;20033;-76
2023/03/01 04:08:06;;;;;;;6.85;2.85;;;;;;;;;;4982083;28;20047;-75
2023/03/01 04:10:39;;;;;;;4.63;2.40;;;;;;;;;;4985170;28;20022;-76
2023/03/01 04:13:06;;;;;;;5.47;2.78;;;;;;;;;;4988106;28;20030;-76
2023/03/01 04:15:32;;;;;;;6.88;2.95;;;;;;;;;;4985469;28;20030;-76
2023/03/01 04:17:59;;;;;;;6.32;2.70;;;;;;;;;;4981161;28;20518;-76
2023/03/01 04:20:26;;;;;;;5.57;3.10;;;;;;;;;;4984702;28;20113;-75
2023/03/01 04:22:53;;;;;;;5.22;2.78;;;;;;;;;;4978234;28;20491;-75
2023/03/01 04:25:19;;;;;;;5.30;2.63;;;;;;;;;;4982655;28;20030;-79
2023/03/01 04:27:45;;;;;;;4.53;2.47;;;;;;;;;;4984959;28;20065;-76
2023/03/01 04:30:12;;;;;;;6.72;3.17;;;;;;;;;;4981301;28;20481;-73
2023/03/01 04:32:38;;;;;;;4.80;2.08;;;;;;;;;;4984630;28;20036;-73
2023/03/01 04:35:04;;;;;;;8.85;3.00;;;;;;;;;;4985054;28;22187;-74
2023/03/01 04:37:30;;;;;;;5.15;2.83;;;;;;;;;;4980165;28;20034;-73
2023/03/01 04:39:56;;;;;;;8.10;3.05;;;;;;;;;;4984440;28;20097;-74
2023/03/01 04:42:22;;;;;;;6.13;2.53;;;;;;;;;;4979813;28;20389;-75
2023/03/01 04:44:51;;;;;;;4.97;3.10;;;;;;;;;;4983505;28;20042;-74
2023/03/01 04:47:17;;;;;;;5.70;2.45;;;;;;;;;;4981943;28;20034;-74
2023/03/01 04:49:43;;;;;;;5.05;2.75;;;;;;;;;;4976950;28;20046;-74
2023/03/01 04:52:09;;;;;;;6.45;3.10;;;;;;;;;;4979699;28;20031;-74
2023/03/01 04:54:35;;;;;;;6.32;2.97;;;;;;;;;;4988094;28;20034;-75
2023/03/01 04:57:02;;;;;;;7.95;3.47;;;;;;;;;;4985862;28;20040;-74
2023/03/01 04:59:28;;;;;;;6.25;2.85;;;;;;;;;;4980218;28;20053;-74
2023/03/01 05:01:55;;;;;;;5.40;2.78;;;;;;;;;;4980251;28;20096;-74
2023/03/01 05:04:22;;;;;;;8.10;3.30;;;;;;;;;;4987093;28;20047;-75
2023/03/01 05:06:48;;;;;;;8.45;3.42;;;;;;;;;;4979139;28;20046;-74
2023/03/01 05:09:14;;;;;;;4.32;2.20;;;;;;;;;;4979971;28;20148;-74
2023/03/01 05:11:40;;;;;;;6.10;2.78;;;;;;;;;;4980629;28;20638;-74
2023/03/01 05:14:07;;;;;;;4.22;2.47;;;;;;;;;;4981926;28;20022;-74
2023/03/01 05:16:33;;;;;;;4.40;2.67;;;;;;;;;;4982819;28;20031;-74
2023/03/01 05:18:59;;;;;;;7.63;2.60;;;;;;;;;;4986542;28;20452;-75
2023/03/01 05:21:25;;;;;;;5.78;2.88;;;;;;;;;;4992590;28;20029;-75
2023/03/01 05:23:58;;;;;;;5.03;2.55;;;;;;;;;;4987089;28;20031;-75
2023/03/01 05:26:28;;;;;;;6.20;3.35;;;;;;;;;;4986603;28;20038;-75
2023/03/01 05:28:58;;;;;;;5.38;2.83;;;;;;;;;;4986979;28;20037;-75
2023/03/01 05:31:24;;;;;;;4.85;2.63;;;;;;;;;;4988230;28;20634;-74
2023/03/01 05:33:50;;;;;;;4.95;2.55;;;;;;;;;;4985969;28;20017;-75
2023/03/01 05:36:16;;;;;;;5.85;2.80;;;;;;;;;;4989241;28;20029;-74
2023/03/01 05:38:42;;;;;;;7.65;3.17;;;;;;;;;;4983627;28;20030;-74
2023/03/01 05:41:14;;;;;;;6.50;2.70;;;;;;;;;;4986796;28;20090;-74
2023/03/01 05:43:43;;;;;;;4.90;2.70;;;;;;;;;;4988619;28;20705;-75
2023/03/01 05:46:12;;;;;;;4.57;2.67;;;;;;;;;;4988877;28;20061;-74
2023/03/01 05:48:41;;;;;;;4.88;2.45;;;;;;;;;;4985551;28;20362;-75
2023/03/01 05:51:06;;;;;;;8.57;2.95;;;;;;;;;;4987451;28;20056;-75
2023/03/01 05:53:32;;;;;;;4.60;2.53;;;;;;;;;;4986775;28;20034;-74
2023/03/01 05:55:58;;;;;;;3.80;2.60;;;;;;;;;;4978607;28;20047;-74
2023/03/01 05:58:24;;;;;;;5.45;3.33;;;;;;;;;;4980449;28;20094;-73
2023/03/01 06:00:50;;;;;;;4.43;2.30;;;;;;;;;;4990387;28;20088;-74
2023/03/01 06:03:17;;;;;;;8.73;2.83;;;;;;;;;;4990524;28;20022;-79
2023/03/01 06:05:44;;;;;;;6.35;2.80;;;;;;;;;;4970439;28;20518;-77
2023/03/01 06:08:10;;;;;;;5.10;2.53;;;;;;;;;;4985057;28;20053;-78
2023/03/01 06:10:37;;;;;;;6.32;3.05;;;;;;;;;;4990753;28;20797;-77
2023/03/01 06:13:03;;;;;;;5.43;2.90;;;;;;;;;;4983221;28;20034;-77
2023/03/01 06:15:29;;;;;;;10.70;3.22;;;;;;;;;;4989963;28;20037;-85
2023/03/01 06:17:58;;;;;;;4.82;2.70;;;;;;;;;;4987366;28;20489;-83
2023/03/01 06:20:25;;;;;;;6.05;2.75;;;;;;;;;;4980536;28;20035;-78
2023/03/01 06:22:52;;;;;;;7.07;2.50;;;;;;;;;;4980939;28;20082;-76
2023/03/01 06:25:19;;;;;;;6.35;2.63;;;;;;;;;;4985999;28;20038;-77
2023/03/01 06:27:45;;;;;;;7.95;2.95;;;;;;;;;;4986743;28;20113;-76
2023/03/01 06:30:13;;;;;;;4.20;2.58;;;;;;;;;;4989829;28;20080;-77
2023/03/01 06:32:41;;;;;;;5.53;2.72;;;;;;;;;;4989830;28;20018;-76
2023/03/01 06:35:08;;;;;;;5.15;2.90;;;;;;;;;;4987374;28;20110;-77
2023/03/01 06:37:35;;;;;;;5.78;2.95;;;;;;;;;;4989691;28;20116;-77
2023/03/01 06:40:04;;;;;;;3.50;2.28;;;;;;;;;;4989647;28;20117;-77
2023/03/01 06:42:33;;;;;;;9.88;2.85;;;;;;;;;;4986860;28;20062;-77
2023/03/01 06:44:59;;;;;;;5.15;2.75;;;;;;;;;;4987135;28;20489;-77
2023/03/01 06:47:25;;;;;;;7.82;2.78;;;;;;;;;;4989792;28;20025;-77
2023/03/01 06:49:54;;;;;;;5.95;2.85;;;;;;;;;;4989827;28;20026;-77
2023/03/01 06:52:23;;;;;;;5.18;2.97;;;;;;;;;;4989694;28;20433;-76
2023/03/01 06:54:49;;;;;;;4.72;2.67;;;;;;;;;;4989216;28;20018;-77
2023/03/01 06:57:14;;;;;;;4.88;2.40;;;;;;;;;;4987000;28;20037;-76
2023/03/01 06:59:40;;;;;;;6.32;3.10;;;;;;;;;;4988676;28;20046;-77
2023/03/01 07:02:06;;;;;;;5.53;2.65;;;;;;;;;;4989373;28;20058;-77
2023/03/01 07:04:32;;;;;;;4.70;2.80;;;;;;;;;;4989665;28;20014;-77
2023/03/01 07:07:01;;;;;;;5.28;2.78;;;;;;;;;;4987076;28;20576;-76
2023/03/01 07:09:27;;;;;;;5.65;2.78;;;;;;;;;;4989138;28;20027;-77
2023/03/01 07:11:53;;;;;;;4.65;2.35;;;;;;;;;;4989110;28;20441;-77
2023/03/01 07:14:19;;;;;;;5.82;2.80;;;;;;;;;;4989295;28;20030;-76
2023/03/01 07:16:46;;;;;;;5.93;2.47;;;;;;;;;;4984729;28;20462;-77
2023/03/01 07:19:11;;;;;;;6.22;2.95;;;;;;;;;;4985210;28;21787;-77
2023/03/01 07:21:40;;;;;;;6.25;2.97;;;;;;;;;;4990058;28;20505;-76
2023/03/01 07:24:07;;;;;;;8.40;3.72;;;;;;;;;;4989017;28;20026;-76
2023/03/01 07:26:33;;;;;;;6.68;3.42;;;;;;;;;;4982683;28;20133;-77
2023/03/01 07:29:00;;;;;;;5.47;2.78;;;;;;;;;;4987443;28;20026;-75
2023/03/01 07:31:27;;;;;;;7.88;3.47;;;;;;;;;;4985532;28;20030;-76
2023/03/01 07:33:53;;;;;;;6.63;3.17;;;;;;;;;;4984516;28;20027;-77
2023/03/01 07:36:19;;;;;;;12.63;2.75;;;;;;;;;;4993610;28;20141;-76
2023/03/01 07:38:45;;;;;;;6.15;3.50;;;;;;;;;;4987764;28;20033;-76
2023/03/01 07:41:11;;;;;;;5.90;3.55;;;;;;;;;;4988943;28;20030;-76
2023/03/01 07:43:37;;;;;;;7.32;3.33;;;;;;;;;;4989440;28;20501;-75
2023/03/01 07:46:04;;;;;;;5.68;3.50;;;;;;;;;;4988272;28;20107;-76
2023/03/01 07:48:30;;;;;;;7.82;4.10;;;;;;;;;;4985006;28;20048;-76
2023/03/01 07:51:00;;;;;;;8.13;3.97;;;;;;;;;;4990142;28;20045;-76
2023/03/01 07:53:26;;;;;;;10.68;4.45;;;;;;;;;;4986161;28;20022;-76
2023/03/01 07:56:01;;;;;;;8.93;4.57;;;;;;;;;;4986243;28;20065;-76
2023/03/01 07:58:27;;;;;;;9.40;4.47;;;;;;;;;;4983526;28;20033;-76
2023/03/01 08:00:52;;;;;;;9.25;4.53;;;;;;;;;;4988225;28;20042;-76
2023/03/01 08:03:21;;;;;;;7.43;4.30;;;;;;;;;;4979957;28;20030;-77
2023/03/01 08:05:47;;;;;;;5.93;3.42;;;;;;;;;;4985310;28;20245;-76
2023/03/01 08:08:13;;;;;;;6.82;3.88;;;;;;;;;;4993641;28;20058;-76
2023/03/01 08:10:39;;;;;;;8.68;4.82;;;;;;;;;;4984042;28;20034;-77
2023/03/01 08:13:05;;;;;;;9.90;4.47;;;;;;;;;;4983111;28;20023;-77
2023/03/01 08:15:31;;;;;;;10.85;4.75;;;;;;;;;;4987652;28;20018;-77
2023/03/01 08:17:57;;;;;;;10.10;4.63;;;;;;;;;;4984146;28;20041;-77
2023/03/01 08:20:22;;;;;;;9.05;4.28;;;;;;;;;;4981608;28;20664;-76
2023/03/01 08:22:48;;;;;;;7.43;3.83;;;;;;;;;;4990823;28;20030;-75
2023/03/01 08:25:17;;;;;;;10.20;4.53;;;;;;;;;;4989216;28;20093;-77
2023/03/01 08:27:43;;;;;;;9.25;5.20;;;;;;;;;;4978668;28;20139;-76
2023/03/01 08:30:09;;;;;;;7.90;4.35;;;;;;;;;;4980617;28;20034;-77
2023/03/01 08:32:37;;;;;;;9.32;4.40;;;;;;;;;;4990629;28;20096;-74
2023/03/01 08:35:03;;;;;;;7.53;4.38;;;;;;;;;;4978162;28;20051;-74
2023/03/01 08:37:30;;;;;;;8.90;4.22;;;;;;;;;;4976425;28;20122;-73
2023/03/01 08:39:56;;;;;;;8.55;4.53;;;;;;;;;;4984521;28;20504;-75
2023/03/01 08:42:22;;;;;;;8.02;4.22;;;;;;;;;;4994455;28;20038;-74
2023/03/01 08:44:48;;;;;;;10.77;4.00;;;;;;;;;;4991944;28;20030;-75
2023/03/01 08:47:14;;;;;;;9.38;4.15;;;;;;;;;;4991299;28;20030;-74
2023/03/01 08:49:40;;;;;;;7.47;3.92;;;;;;;;;;4988430;28;20034;-74
2023/03/01 08:52:06;;;;;;;11.27;4.55;;;;;;;;;;4990007;28;20025;-74
2023/03/01 08:54:32;;;;;;;6.97;4.03;;;;;;;;;;4974543;28;20042;-74
2023/03/01 08:56:58;;;;;;;8.50;3.80;;;;;;;;;;4980084;28;20045;-74
2023/03/01 08:59:26;;;;;;;7.35;3.35;;;;;;;;;;4982429;28;20482;-74
2023/03/01 09:01:52;;;;;;;9.90;3.85;;;;;;;;;;4990795;28;20142;-74
2023/03/01 09:04:18;;;;;;;9.10;3.50;;;;;;;;;;4994125;28;20096;-75
2023/03/01 09:06:44;;;;;;;6.50;3.72;;;;;;;;;;4967091;28;20137;-85
2023/03/01 09:09:15;;;;;;;6.65;3.80;;;;;;;;;;4986847;28;20041;-84
2023/03/01 09:11:42;;;;;;;5.60;3.25;;;;;;;;;;4971775;28;20023;-83
2023/03/01 09:14:08;;;;;;;4.55;3.13;;;;;;;;;;4989300;28;20453;-83
2023/03/01 09:16:35;;;;;;;6.30;3.42;;;;;;;;;;4991593;28;20073;-83
2023/03/01 09:19:02;;;;;;;9.70;3.83;;;;;;;;;;4987942;28;20468;-84
2023/03/01 09:21:28;;;;;;;6.78;3.72;;;;;;;;;;4991017;28;20034;-84
2023/03/01 09:23:54;;;;;;;5.60;3.28;;;;;;;;;;4989076;28;20126;-84
2023/03/01 09:26:21;;;;;;;6.18;3.75;;;;;;;;;;4991084;28;20397;-84
2023/03/01 09:28:55;;;;;;;5.38;2.58;;;;;;;;;;4991370;28;20026;-84
2023/03/01 09:31:21;;;;;;;5.72;3.17;;;;;;;;;;4989028;28;20113;-85
2023/03/01 09:33:48;;;;;;;4.95;3.10;;;;;;;;;;4990625;28;20027;-84
2023/03/01 09:36:15;;;;;;;4.82;2.92;;;;;;;;;;4989485;28;20034;-85
2023/03/01 09:38:41;;;;;;;7.28;3.22;;;;;;;;;;4991290;28;20133;-85
2023/03/01 09:41:20;;;;;;;8.25;3.10;;;;;;;;;;4988648;28;20058;-86
2023/03/01 09:44:22;;;;;;;4.75;2.88;;;;;;;;;;4990787;28;20381;-85
2023/03/01 09:46:48;;;;;;;4.22;2.70;;;;;;;;;;4910911;29;20032;-83
2023/03/01 09:49:27;;;;;;;7.25;2.50;;;;;;;;;;4970676;28;20500;-83
2023/03/01 09:51:56;;;;;;;5.80;2.80;;;;;;;;;;4985740;28;20042;-83
2023/03/01 09:54:22;;;;;;;3.70;2.22;;;;;;;;;;4990757;28;20030;-84
2023/03/01 09:57:08;;;;;;;3.65;2.70;;;;;;;;;;4985709;28;20021;-83
2023/03/01 09:59:38;;;;;;;5.32;2.85;;;;;;;;;;4984904;28;20105;-83
2023/03/01 10:02:11;;;;;;;5.28;2.45;;;;;;;;;;4990415;28;20023;-82
2023/03/01 10:04:43;;;;;;;5.25;2.45;;;;;;;;;;4990844;28;20030;-84
2023/03/01 10:07:21;;;;;;;6.05;2.67;;;;;;;;;;4988497;28;20056;-85
2023/03/01 10:09:47;;;;;;;5.35;2.88;;;;;;;;;;4988775;28;20074;-85
2023/03/01 10:12:17;;;;;;;3.60;2.47;;;;;;;;;;4987866;28;20247;-84
2023/03/01 10:14:49;;;;;;;6.10;2.58;;;;;;;;;;4988047;28;20071;-85
2023/03/01 10:17:38;;;;;;;3.95;2.08;;;;;;;;;;4990266;28;20370;-84
2023/03/01 10:20:17;;;;;;;3.80;2.00;;;;;;;;;;4987311;28;20405;-85
2023/03/01 10:22:46;;;;;;;3.45;2.10;;;;;;;;;;4987723;28;20030;-87
2023/03/01 10:25:14;;;;;;;4.22;2.42;;;;;;;;;;4988323;28;20114;-86
2023/03/01 10:27:53;;;;;;;3.75;2.20;;;;;;;;;;4990318;28;20030;-86
2023/03/01 10:30:19;;;;;;;3.63;2.28;;;;;;;;;;4989993;28;20038;-86
2023/03/01 10:32:48;;;;;;;3.65;2.15;;;;;;;;;;4990491;28;20020;-84
2023/03/01 10:35:20;;;;;;;4.97;2.72;;;;;;;;;;4987489;28;20445;-84
2023/03/01 10:37:59;;;;;;;3.92;2.33;;;;;;;;;;4988463;28;20034;-83
2023/03/01 10:40:24;;;;;;;3.72;2.60;;;;;;;;;;4989696;28;20034;-85
2023/03/01 10:42:51;;;;;;;4.03;2.30;;;;;;;;;;4989361;28;20022;-84
2023/03/01 10:45:27;;;;;;;3.53;2.22;;;;;;;;;;4987046;28;20116;-84
2023/03/01 10:48:06;;;;;;;5.05;2.05;;;;;;;;;;4987772;28;20084;-84
2023/03/01 10:50:32;;;;;;;5.47;2.63;;;;;;;;;;4989889;28;20363;-83
2023/03/01 10:53:00;;;;;;;2.95;2.05;;;;;;;;;;4987893;28;20033;-84
2023/03/01 10:55:29;;;;;;;2.85;1.80;;;;;;;;;;4987890;28;20076;-85
2023/03/01 10:58:14;;;;;;;3.30;1.95;;;;;;;;;;4989944;28;20034;-86
2023/03/01 11:00:52;;;;;;;2.90;1.65;;;;;;;;;;4988553;28;20022;-86
2023/03/01 11:03:19;;;;;;;2.55;1.65;;;;;;;;;;4989906;28;20080;-85
2023/03/01 11:06:09;;;;;;;3.75;2.63;;;;;;;;;;4986441;28;20026;-84
2023/03/01 11:08:37;;;;;;;3.28;1.80;;;;;;;;;;4985599;28;20520;-83
2023/03/01 11:11:08;;;;;;;3.28;1.67;;;;;;;;;;4987243;28;20520;-83
2023/03/01 11:13:34;;;;;;;5.80;2.38;;;;;;;;;;4990484;28;20030;-84
2023/03/01 11:16:13;;;;;;;3.17;2.05;;;;;;;;;;4989594;28;20106;-84
2023/03/01 11:18:39;;;;;;;3.30;2.03;;;;;;;;;;4987921;28;20033;-84
2023/03/01 11:21:06;;;;;;;8.45;2.13;;;;;;;;;;4987813;28;20058;-84
2023/03/01 11:23:33;;;;;;;3.13;1.80;;;;;;;;;;4989178;28;20166;-84
2023/03/01 11:26:09;;;;;;;4.07;1.98;;;;;;;;;;4987920;28;20045;-83
2023/03/01 11:28:36;;;;;;;3.58;1.95;;;;;;;;;;4986502;28;20041;-84
2023/03/01 11:31:05;;;;;;;2.72;1.90;;;;;;;;;;4987633;28;20126;-84
2023/03/01 11:33:37;;;;;;;3.03;2.00;;;;;;;;;;4988731;28;20022;-84
2023/03/01 11:36:06;;;;;;;2.22;1.60;;;;;;;;;;4991586;28;20038;-84
2023/03/01 11:38:34;;;;;;;3.17;1.83;;;;;;;;;;4988852;28;20056;-83
2023/03/01 11:41:21;;;;;;;4.35;2.47;;;;;;;;;;4987358;28;20114;-84
2023/03/01 11:43:53;;;;;;;2.28;1.73;;;;;;;;;;4989911;28;20483;-84
2023/03/01 11:46:32;;;;;;;3.55;2.25;;;;;;;;;;4986934;28;20050;-84
2023/03/01 11:49:04;;;;;;;3.22;1.77;;;;;;;;;;4989632;28;20315;-84
2023/03/01 11:51:39;;;;;;;3.47;1.70;;;;;;;;;;4987520;28;20041;-84
2023/03/01 11:54:24;;;;;;;3.40;1.67;;;;;;;;;;4987719;28;20157;-85
2023/03/01 11:56:56;;;;;;;3.65;2.25;;;;;;;;;;4978511;28;20022;-86
2023/03/01 11:59:41;;;;;;;2.17;1.73;;;;;;;;;;4988655;28;20041;-86
2023/03/01 12:02:25;;;;;;;2.38;1.80;;;;;;;;;;4984208;28;20290;-87
2023/03/01 12:04:51;;;;;;;2.63;1.63;;;;;;;;;;4987933;28;20038;-86
2023/03/01 12:07:30;;;;;;;5.03;1.85;;;;;;;;;;4987863;28;20056;-86
2023/03/01 12:10:08;;;;;;;4.90;1.80;;;;;;;;;;4984860;28;20042;-86
2023/03/01 12:12:47;;;;;;;4.03;1.80;;;;;;;;;;4986025;28;20104;-87
2023/03/01 12:15:28;;;;;;;3.85;1.95;;;;;;;;;;4987560;28;20034;-86
2023/03/01 12:18:08;;;;;;;3.10;1.90;;;;;;;;;;4985708;28;20432;-85
2023/03/01 12:20:46;;;;;;;3.08;1.75;;;;;;;;;;4982355;28;20027;-86
2023/03/01 12:23:25;;;;;;;4.03;2.08;;;;;;;;;;4985314;28;20444;-86
2023/03/01 12:26:12;;;;;;;1.75;1.60;;;;;;;;;;4985463;28;20034;-86
2023/03/01 12:28:44;;;;;;;2.40;1.73;;;;;;;;;;4987704;28;20026;-86
2023/03/01 12:31:29;;;;;;;1.80;1.23;;;;;;;;;;4987359;28;20021;-86
2023/03/01 12:34:23;;;;;;;2.10;1.42;;;;;;;;;;4985246;28;20053;-86
2023/03/01 12:36:58;;;;;;;2.95;1.45;;;;;;;;;;4983910;28;20023;-86
2023/03/01 12:39:26;;;;;;;1.98;1.45;;;;;;;;;;4986863;28;20041;-87
2023/03/01 12:41:52;;;;;;;1.67;1.20;;;;;;;;;;4987789;28;20673;-90
2023/03/01 12:44:40;;;;;;;2.70;1.77;;;;;;;;;;4987432;28;20026;-85
2023/03/01 12:47:25;;;;;;;3.60;1.60;;;;;;;;;;4982737;28;20026;-86
2023/03/01 12:49:55;;;;;;;2.03;1.60;;;;;;;;;;4992240;28;20030;-87
2023/03/01 12:52:21;;;;;;;2.08;1.42;;;;;;;;;;4987035;28;20485;-86
2023/03/01 12:54:48;;;;;;;2.65;1.48;;;;;;;;;;4987359;28;20015;-86
2023/03/01 12:57:26;;;;;;;4.07;1.70;;;;;;;;;;4983599;28;20026;-86
2023/03/01 13:00:11;;;;;;;1.55;1.20;;;;;;;;;;4987315;28;20019;-86
2023/03/01 13:02:49;;;;;;;2.05;1.27;;;;;;;;;;4977028;28;20038;-86
2023/03/01 13:05:18;;;;;;;1.85;1.25;;;;;;;;;;4984914;28;20042;-86
2023/03/01 13:07:59;;;;;;;3.00;1.60;;;;;;;;;;4983994;28;20425;-86
2023/03/01 13:10:32;;;;;;;2.08;1.52;;;;;;;;;;4984968;28;20042;-86
2023/03/01 13:13:02;;;;;;;3.20;1.40;;;;;;;;;;4984537;28;20371;-86
2023/03/01 13:15:29;;;;;;;1.45;1.23;;;;;;;;;;4978768;28;20077;-78
2023/03/01 13:18:03;;;;;;;1.33;1.23;;;;;;;;;;4987834;28;20026;-77
2023/03/01 13:20:34;;;;;;;1.25;1.05;;;;;;;;;;4982754;28;20037;-79
2023/03/01 13:23:09;;;;;;;2.58;1.40;;;;;;;;;;4985338;28;20031;-78
2023/03/01 13:25:35;;;;;;;1.70;1.20;;;;;;;;;;4990986;28;20433;-78
2023/03/01 13:28:33;;;;;;;1.63;1.20;;;;;;;;;;4983033;28;20030;-78
2023/03/01 13:30:59;;;;;;;1.65;1.27;;;;;;;;;;4985255;28;20208;-77
2023/03/01 13:33:28;;;;;;;2.42;1.13;;;;;;;;;;4983019;28;20544;-77
2023/03/01 13:35:55;;;;;;;1.35;1.23;;;;;;;;;;4986662;28;20076;-73
2023/03/01 13:38:40;;;;;;;1.77;1.10;;;;;;;;;;4982686;28;20489;-73
2023/03/01 13:41:07;;;;;;;1.60;1.17;;;;;;;;;;4982987;28;20034;-73
2023/03/01 13:43:43;;;;;;;1.95;1.20;;;;;;;;;;4987525;28;20038;-73
2023/03/01 13:46:20;;;;;;;2.55;1.50;;;;;;;;;;4983742;28;20045;-74
2023/03/01 13:48:50;;;;;;;1.90;1.40;;;;;;;;;;4993596;28;20065;-74
2023/03/01 13:51:16;;;;;;;6.22;2.47;;;;;;;;;;4986229;28;20030;-74
2023/03/01 13:53:44;;;;;;;2.08;1.40;;;;;;;;;;4988721;28;20121;-73
2023/03/01 13:56:13;;;;;;;2.13;1.30;;;;;;;;;;4990560;28;20433;-74
2023/03/01 13:59:02;;;;;;;1.95;1.27;;;;;;;;;;4990282;28;20026;-74
2023/03/01 14:01:30;;;;;;;3.17;1.10;;;;;;;;;;4981858;28;20062;-74
2023/03/01 14:03:56;;;;;;;2.00;1.10;;;;;;;;;;4988933;28;20448;-73
2023/03/01 14:06:24;;;;;;;2.13;1.20;;;;;;;;;;4990361;28;20260;-73
2023/03/01 14:08:50;;;;;;;2.78;1.08;;;;;;;;;;4989284;28;20030;-74
2023/03/01 14:11:36;;;;;;;1.67;0.90;;;;;;;;;;4988139;28;20030;-74
2023/03/01 14:14:12;;;;;;;10.13;1.67;;;;;;;;;;4988371;28;20027;-73
2023/03/01 14:16:53;;;;;;;1.90;1.13;;;;;;;;;;4990104;28;20030;-74
2023/03/01 14:19:25;;;;;;;1.10;1.00;;;;;;;;;;4989780;28;20161;-73
2023/03/01 14:22:04;;;;;;;1.88;0.93;;;;;;;;;;4990258;28;20034;-74
2023/03/01 14:24:32;;;;;;;1.00;0.90;;;;;;;;;;4987101;28;20061;-73
2023/03/01 14:26:58;;;;;;;2.22;1.00;;;;;;;;;;4989528;28;20038;-73
2023/03/01 14:29:25;;;;;;;1.55;0.88;;;;;;;;;;4989616;28;20496;-74
2023/03/01 14:31:51;;;;;;;2.08;1.20;;;;;;;;;;4989139;28;20031;-74
2023/03/01 14:34:22;;;;;;;2.58;1.30;;;;;;;;;;4990336;28;20022;-75
2023/03/01 14:36:48;;;;;;;1.98;1.10;;;;;;;;;;4990088;28;20030;-74
2023/03/01 14:39:17;;;;;;;1.33;1.00;;;;;;;;;;4987716;28;20042;-73
2023/03/01 14:41:43;;;;;;;2.85;1.00;;;;;;;;;;4988192;28;20049;-73
2023/03/01 14:44:15;;;;;;;2.92;1.35;;;;;;;;;;4987954;28;20111;-74
2023/03/01 14:46:43;;;;;;;1.60;0.93;;;;;;;;;;4990284;28;20039;-74
2023/03/01 14:49:26;;;;;;;3.97;1.02;;;;;;;;;;4990742;28;20031;-74
2023/03/01 14:52:03;;;;;;;4.82;1.30;;;;;;;;;;4984775;28;20073;-74
2023/03/01 14:54:33;;;;;;;2.17;0.70;;;;;;;;;;4987988;28;20027;-73
2023/03/01 14:57:02;;;;;;;1.67;0.70;;;;;;;;;;4987911;28;20034;-74
2023/03/01 14:59:28;;;;;;;2.08;1.35;;;;;;;;;;4989057;28;20477;-73